sensor_id;sensor_type;location;lat;lon;timestamp;temperature;humidity
18281;DHT22;9266;51.132;17.062;2022-12-29T00:03:22;6.40;1.00
18281;DHT22;9266;51.132;17.062;2022-12-29T00:05:54;6.50;1.00
18281;DHT22;9266;51.132;17.062;2022-12-29T00:11:06;6.80;1.00
18281;DHT22;9266;51.132;17.062;2022-12-29T00:13:34;6.80;1.00
18281;DHT22;9266;51.132;17.062;2022-12-29T00:16:18;6.80;1.00
18281;DHT22;9266;51.132;17.062;2022-12-29T00:18:45;6.90;1.00
18281;DHT22;9266;51.132;17.062;2022-12-29T00:21:13;7.00;1.00
18281;DHT22;9266;51.132;17.062;2022-12-29T00:23:59;7.00;1.00
18281;DHT22;9266;51.132;17.062;2022-12-29T00:26:55;7.10;99.90
18281;DHT22;9266;51.132;17.062;2022-12-29T00:29:40;7.20;99.90
18281;DHT22;9266;51.132;17.062;2022-12-29T00:32:25;7.20;99.90
18281;DHT22;9266;51.132;17.062;2022-12-29T00:35:11;7.20;99.90
18281;DHT22;9266;51.132;17.062;2022-12-29T00:37:41;7.20;99.90
18281;DHT22;9266;51.132;17.062;2022-12-29T00:40:26;7.20;99.90
18281;DHT22;9266;51.132;17.062;2022-12-29T00:43:12;7.20;99.90
18281;DHT22;9266;51.132;17.062;2022-12-29T00:45:56;7.20;99.90
18281;DHT22;9266;51.132;17.062;2022-12-29T00:48:23;7.10;99.90
18281;DHT22;9266;51.132;17.062;2022-12-29T00:51:05;7.10;99.90
18281;DHT22;9266;51.132;17.062;2022-12-29T00:53:32;7.10;99.90
18281;DHT22;9266;51.132;17.062;2022-12-29T00:55:59;7.10;99.90
18281;DHT22;9266;51.132;17.062;2022-12-29T00:58:29;7.10;99.90
18281;DHT22;9266;51.132;17.062;2022-12-29T01:01:01;6.80;99.90
18281;DHT22;9266;51.132;17.062;2022-12-29T01:03:28;7.00;99.90
18281;DHT22;9266;51.132;17.062;2022-12-29T01:05:56;6.90;99.90
18281;DHT22;9266;51.132;17.062;2022-12-29T01:08:23;7.00;99.90
18281;DHT22;9266;51.132;17.062;2022-12-29T01:10:58;7.00;99.90
18281;DHT22;9266;51.132;17.062;2022-12-29T01:13:24;7.00;99.90
18281;DHT22;9266;51.132;17.062;2022-12-29T01:15:53;7.00;99.90
18281;DHT22;9266;51.132;17.062;2022-12-29T01:18:20;7.00;99.90
18281;DHT22;9266;51.132;17.062;2022-12-29T01:20:48;7.00;99.90
18281;DHT22;9266;51.132;17.062;2022-12-29T01:23:15;7.00;99.90
18281;DHT22;9266;51.132;17.062;2022-12-29T01:25:42;6.90;99.90
18281;DHT22;9266;51.132;17.062;2022-12-29T01:28:09;6.90;99.90
18281;DHT22;9266;51.132;17.062;2022-12-29T01:30:36;6.90;99.90
18281;DHT22;9266;51.132;17.062;2022-12-29T01:33:05;6.90;99.90
18281;DHT22;9266;51.132;17.062;2022-12-29T01:35:32;6.90;99.90
18281;DHT22;9266;51.132;17.062;2022-12-29T01:37:59;6.90;99.90
18281;DHT22;9266;51.132;17.062;2022-12-29T01:40:26;6.80;1.00
18281;DHT22;9266;51.132;17.062;2022-12-29T01:42:53;6.90;1.00
18281;DHT22;9266;51.132;17.062;2022-12-29T01:45:21;6.90;1.00
18281;DHT22;9266;51.132;17.062;2022-12-29T01:47:50;7.00;1.00
18281;DHT22;9266;51.132;17.062;2022-12-29T01:50:23;6.90;1.00
18281;DHT22;9266;51.132;17.062;2022-12-29T01:52:55;6.90;1.00
18281;DHT22;9266;51.132;17.062;2022-12-29T01:55:24;7.00;99.90
18281;DHT22;9266;51.132;17.062;2022-12-29T01:57:53;7.00;99.90
18281;DHT22;9266;51.132;17.062;2022-12-29T02:00:22;7.10;99.90
18281;DHT22;9266;51.132;17.062;2022-12-29T02:02:52;7.20;99.90
18281;DHT22;9266;51.132;17.062;2022-12-29T02:05:26;7.30;99.90
18281;DHT22;9266;51.132;17.062;2022-12-29T02:07:54;7.30;99.90
18281;DHT22;9266;51.132;17.062;2022-12-29T02:10:22;7.40;99.90
18281;DHT22;9266;51.132;17.062;2022-12-29T02:12:50;7.40;99.90
18281;DHT22;9266;51.132;17.062;2022-12-29T02:15:18;7.40;99.90
18281;DHT22;9266;51.132;17.062;2022-12-29T02:17:58;7.30;99.90
18281;DHT22;9266;51.132;17.062;2022-12-29T02:27:16;7.30;99.90
18281;DHT22;9266;51.132;17.062;2022-12-29T02:32:54;7.40;99.90
18281;DHT22;9266;51.132;17.062;2022-12-29T02:35:29;7.30;99.90
18281;DHT22;9266;51.132;17.062;2022-12-29T02:38:05;7.20;99.90
18281;DHT22;9266;51.132;17.062;2022-12-29T02:40:40;7.10;99.90
18281;DHT22;9266;51.132;17.062;2022-12-29T02:43:17;6.60;99.90
18281;DHT22;9266;51.132;17.062;2022-12-29T02:45:53;7.00;99.90
18281;DHT22;9266;51.132;17.062;2022-12-29T02:48:28;6.90;99.90
18281;DHT22;9266;51.132;17.062;2022-12-29T02:51:00;6.90;99.90
18281;DHT22;9266;51.132;17.062;2022-12-29T02:53:29;6.90;99.90
18281;DHT22;9266;51.132;17.062;2022-12-29T02:56:15;6.90;99.90
18281;DHT22;9266;51.132;17.062;2022-12-29T02:58:42;6.90;99.90
18281;DHT22;9266;51.132;17.062;2022-12-29T03:01:29;6.90;99.90
18281;DHT22;9266;51.132;17.062;2022-12-29T03:04:17;6.90;99.90
18281;DHT22;9266;51.132;17.062;2022-12-29T03:06:54;6.90;99.90
18281;DHT22;9266;51.132;17.062;2022-12-29T03:09:31;6.80;99.90
18281;DHT22;9266;51.132;17.062;2022-12-29T03:12:11;6.90;99.90
18281;DHT22;9266;51.132;17.062;2022-12-29T03:14:55;6.90;99.90
18281;DHT22;9266;51.132;17.062;2022-12-29T03:17:48;6.90;99.90
18281;DHT22;9266;51.132;17.062;2022-12-29T03:20:23;6.90;99.90
18281;DHT22;9266;51.132;17.062;2022-12-29T03:22:55;7.00;99.90
18281;DHT22;9266;51.132;17.062;2022-12-29T03:25:26;7.00;99.90
18281;DHT22;9266;51.132;17.062;2022-12-29T03:27:57;7.00;99.90
18281;DHT22;9266;51.132;17.062;2022-12-29T03:30:26;7.00;99.90
18281;DHT22;9266;51.132;17.062;2022-12-29T03:32:55;7.00;99.90
18281;DHT22;9266;51.132;17.062;2022-12-29T03:35:27;7.00;99.90
18281;DHT22;9266;51.132;17.062;2022-12-29T03:37:58;7.00;99.90
18281;DHT22;9266;51.132;17.062;2022-12-29T03:40:29;6.90;99.90
18281;DHT22;9266;51.132;17.062;2022-12-29T03:42:58;6.90;1.00
18281;DHT22;9266;51.132;17.062;2022-12-29T03:45:25;6.80;1.00
18281;DHT22;9266;51.132;17.062;2022-12-29T03:47:53;6.80;1.00
18281;DHT22;9266;51.132;17.062;2022-12-29T03:50:20;6.70;1.00
18281;DHT22;9266;51.132;17.062;2022-12-29T03:52:49;6.70;1.00
18281;DHT22;9266;51.132;17.062;2022-12-29T03:55:16;6.70;1.00
18281;DHT22;9266;51.132;17.062;2022-12-29T03:57:43;6.70;1.00
18281;DHT22;9266;51.132;17.062;2022-12-29T04:00:11;6.80;1.00
18281;DHT22;9266;51.132;17.062;2022-12-29T04:02:39;6.80;1.00
18281;DHT22;9266;51.132;17.062;2022-12-29T04:05:06;6.80;99.90
18281;DHT22;9266;51.132;17.062;2022-12-29T04:07:33;6.90;99.90
18281;DHT22;9266;51.132;17.062;2022-12-29T04:10:02;6.90;99.90
18281;DHT22;9266;51.132;17.062;2022-12-29T04:12:29;8.60;99.90
18281;DHT22;9266;51.132;17.062;2022-12-29T04:14:57;6.90;99.90
18281;DHT22;9266;51.132;17.062;2022-12-29T04:17:24;7.00;99.90
18281;DHT22;9266;51.132;17.062;2022-12-29T04:19:51;7.00;99.90
18281;DHT22;9266;51.132;17.062;2022-12-29T04:22:38;7.00;99.90
18281;DHT22;9266;51.132;17.062;2022-12-29T04:25:06;7.10;99.90
18281;DHT22;9266;51.132;17.062;2022-12-29T04:27:33;7.20;99.90
18281;DHT22;9266;51.132;17.062;2022-12-29T04:30:00;7.20;99.90
18281;DHT22;9266;51.132;17.062;2022-12-29T04:32:28;7.20;99.90
18281;DHT22;9266;51.132;17.062;2022-12-29T04:34:55;7.20;99.90
18281;DHT22;9266;51.132;17.062;2022-12-29T04:37:22;7.20;99.90
18281;DHT22;9266;51.132;17.062;2022-12-29T04:39:49;7.30;99.90
18281;DHT22;9266;51.132;17.062;2022-12-29T04:42:17;7.30;99.90
18281;DHT22;9266;51.132;17.062;2022-12-29T04:44:44;7.30;99.90
18281;DHT22;9266;51.132;17.062;2022-12-29T04:47:11;7.40;99.90
18281;DHT22;9266;51.132;17.062;2022-12-29T04:49:38;7.40;99.90
18281;DHT22;9266;51.132;17.062;2022-12-29T04:52:05;7.50;99.90
18281;DHT22;9266;51.132;17.062;2022-12-29T04:54:33;7.50;99.90
18281;DHT22;9266;51.132;17.062;2022-12-29T04:57:01;7.50;99.90
18281;DHT22;9266;51.132;17.062;2022-12-29T04:59:29;7.40;99.90
18281;DHT22;9266;51.132;17.062;2022-12-29T05:01:56;7.40;99.90
18281;DHT22;9266;51.132;17.062;2022-12-29T05:04:23;7.50;99.90
18281;DHT22;9266;51.132;17.062;2022-12-29T05:06:50;7.50;99.90
18281;DHT22;9266;51.132;17.062;2022-12-29T05:09:17;7.50;99.90
18281;DHT22;9266;51.132;17.062;2022-12-29T05:11:45;7.50;99.90
18281;DHT22;9266;51.132;17.062;2022-12-29T05:14:12;7.50;99.90
18281;DHT22;9266;51.132;17.062;2022-12-29T05:16:40;7.50;99.90
18281;DHT22;9266;51.132;17.062;2022-12-29T05:19:07;7.60;99.90
18281;DHT22;9266;51.132;17.062;2022-12-29T05:21:34;7.60;99.90
18281;DHT22;9266;51.132;17.062;2022-12-29T05:24:01;6.20;99.90
18281;DHT22;9266;51.132;17.062;2022-12-29T05:26:28;7.60;99.90
18281;DHT22;9266;51.132;17.062;2022-12-29T05:28:55;7.60;99.90
18281;DHT22;9266;51.132;17.062;2022-12-29T05:31:22;7.50;99.90
18281;DHT22;9266;51.132;17.062;2022-12-29T05:33:51;7.50;99.90
18281;DHT22;9266;51.132;17.062;2022-12-29T05:36:18;7.50;99.90
18281;DHT22;9266;51.132;17.062;2022-12-29T05:38:45;7.50;99.90
18281;DHT22;9266;51.132;17.062;2022-12-29T05:41:12;7.50;99.90
18281;DHT22;9266;51.132;17.062;2022-12-29T05:43:39;7.50;99.90
18281;DHT22;9266;51.132;17.062;2022-12-29T05:46:06;7.40;99.90
18281;DHT22;9266;51.132;17.062;2022-12-29T05:48:33;7.50;99.90
18281;DHT22;9266;51.132;17.062;2022-12-29T05:51:01;7.50;99.90
18281;DHT22;9266;51.132;17.062;2022-12-29T05:53:29;7.50;99.90
18281;DHT22;9266;51.132;17.062;2022-12-29T05:55:56;9.20;99.90
18281;DHT22;9266;51.132;17.062;2022-12-29T05:58:23;7.50;99.90
18281;DHT22;9266;51.132;17.062;2022-12-29T06:00:50;7.50;99.90
18281;DHT22;9266;51.132;17.062;2022-12-29T06:03:17;7.70;99.90
18281;DHT22;9266;51.132;17.062;2022-12-29T06:05:45;7.70;99.90
18281;DHT22;9266;51.132;17.062;2022-12-29T06:08:13;7.80;99.90
18281;DHT22;9266;51.132;17.062;2022-12-29T06:10:40;7.90;99.90
18281;DHT22;9266;51.132;17.062;2022-12-29T06:13:07;7.90;99.90
18281;DHT22;9266;51.132;17.062;2022-12-29T06:15:35;7.80;99.90
18281;DHT22;9266;51.132;17.062;2022-12-29T06:18:02;7.90;99.90
18281;DHT22;9266;51.132;17.062;2022-12-29T06:20:29;7.90;99.90
18281;DHT22;9266;51.132;17.062;2022-12-29T06:22:56;7.90;99.90
18281;DHT22;9266;51.132;17.062;2022-12-29T06:25:25;7.90;99.90
18281;DHT22;9266;51.132;17.062;2022-12-29T06:27:52;7.90;99.90
18281;DHT22;9266;51.132;17.062;2022-12-29T06:30:19;7.90;99.90
18281;DHT22;9266;51.132;17.062;2022-12-29T06:32:46;7.90;99.90
18281;DHT22;9266;51.132;17.062;2022-12-29T06:35:13;7.90;99.90
18281;DHT22;9266;51.132;17.062;2022-12-29T06:37:40;7.90;99.90
18281;DHT22;9266;51.132;17.062;2022-12-29T06:40:09;7.90;99.90
18281;DHT22;9266;51.132;17.062;2022-12-29T06:42:38;7.90;99.90
18281;DHT22;9266;51.132;17.062;2022-12-29T06:45:06;7.90;99.90
18281;DHT22;9266;51.132;17.062;2022-12-29T06:47:33;8.00;99.90
18281;DHT22;9266;51.132;17.062;2022-12-29T06:50:01;8.00;99.90
18281;DHT22;9266;51.132;17.062;2022-12-29T06:52:28;8.00;99.90
18281;DHT22;9266;51.132;17.062;2022-12-29T06:54:55;8.10;99.90
18281;DHT22;9266;51.132;17.062;2022-12-29T06:57:22;8.00;99.90
18281;DHT22;9266;51.132;17.062;2022-12-29T06:59:53;8.00;99.90
18281;DHT22;9266;51.132;17.062;2022-12-29T07:02:21;9.60;99.90
18281;DHT22;9266;51.132;17.062;2022-12-29T07:04:50;8.10;99.90
18281;DHT22;9266;51.132;17.062;2022-12-29T07:07:17;8.10;99.90
18281;DHT22;9266;51.132;17.062;2022-12-29T07:09:45;8.10;99.90
18281;DHT22;9266;51.132;17.062;2022-12-29T07:12:12;8.10;99.90
18281;DHT22;9266;51.132;17.062;2022-12-29T07:14:39;8.10;99.90
18281;DHT22;9266;51.132;17.062;2022-12-29T07:17:08;8.10;99.90
18281;DHT22;9266;51.132;17.062;2022-12-29T07:19:35;8.10;99.90
18281;DHT22;9266;51.132;17.062;2022-12-29T07:22:02;8.50;99.90
18281;DHT22;9266;51.132;17.062;2022-12-29T07:24:29;8.80;99.90
18281;DHT22;9266;51.132;17.062;2022-12-29T07:26:56;8.60;99.90
18281;DHT22;9266;51.132;17.062;2022-12-29T07:29:23;8.40;99.90
18281;DHT22;9266;51.132;17.062;2022-12-29T07:31:50;8.20;99.90
18281;DHT22;9266;51.132;17.062;2022-12-29T07:34:19;8.20;99.90
18281;DHT22;9266;51.132;17.062;2022-12-29T07:36:46;8.10;99.90
18281;DHT22;9266;51.132;17.062;2022-12-29T07:39:13;8.10;99.90
18281;DHT22;9266;51.132;17.062;2022-12-29T07:41:40;8.00;99.90
18281;DHT22;9266;51.132;17.062;2022-12-29T07:44:08;8.00;99.90
18281;DHT22;9266;51.132;17.062;2022-12-29T07:46:35;8.10;99.90
18281;DHT22;9266;51.132;17.062;2022-12-29T07:49:02;8.10;99.90
18281;DHT22;9266;51.132;17.062;2022-12-29T07:51:31;8.10;99.90
18281;DHT22;9266;51.132;17.062;2022-12-29T07:53:58;8.20;99.90
18281;DHT22;9266;51.132;17.062;2022-12-29T07:56:26;8.10;99.90
18281;DHT22;9266;51.132;17.062;2022-12-29T07:58:53;8.10;99.90
18281;DHT22;9266;51.132;17.062;2022-12-29T08:01:20;8.10;99.90
18281;DHT22;9266;51.132;17.062;2022-12-29T08:03:48;7.70;99.90
18281;DHT22;9266;51.132;17.062;2022-12-29T08:06:15;8.20;99.90
18281;DHT22;9266;51.132;17.062;2022-12-29T08:08:45;8.30;99.90
18281;DHT22;9266;51.132;17.062;2022-12-29T08:11:12;8.30;99.90
18281;DHT22;9266;51.132;17.062;2022-12-29T08:13:39;8.40;99.90
18281;DHT22;9266;51.132;17.062;2022-12-29T08:16:06;8.40;99.90
18281;DHT22;9266;51.132;17.062;2022-12-29T08:18:33;8.50;99.90
18281;DHT22;9266;51.132;17.062;2022-12-29T08:21:02;8.60;99.90
18281;DHT22;9266;51.132;17.062;2022-12-29T08:23:29;8.60;99.90
18281;DHT22;9266;51.132;17.062;2022-12-29T08:25:59;8.60;99.90
18281;DHT22;9266;51.132;17.062;2022-12-29T08:28:26;8.70;99.90
18281;DHT22;9266;51.132;17.062;2022-12-29T08:30:54;8.70;99.90
18281;DHT22;9266;51.132;17.062;2022-12-29T08:33:21;8.70;99.90
18281;DHT22;9266;51.132;17.062;2022-12-29T08:35:48;8.80;99.90
18281;DHT22;9266;51.132;17.062;2022-12-29T08:38:15;8.80;99.90
18281;DHT22;9266;51.132;17.062;2022-12-29T08:40:43;8.90;99.90
18281;DHT22;9266;51.132;17.062;2022-12-29T08:43:11;9.00;99.90
18281;DHT22;9266;51.132;17.062;2022-12-29T08:45:38;9.20;99.90
18281;DHT22;9266;51.132;17.062;2022-12-29T08:48:05;9.20;99.90
18281;DHT22;9266;51.132;17.062;2022-12-29T08:50:32;9.30;99.90
18281;DHT22;9266;51.132;17.062;2022-12-29T08:53:00;9.20;99.90
18281;DHT22;9266;51.132;17.062;2022-12-29T08:55:27;9.20;94.80
18281;DHT22;9266;51.132;17.062;2022-12-29T08:57:54;9.20;91.20
18281;DHT22;9266;51.132;17.062;2022-12-29T09:00:22;9.20;90.10
18281;DHT22;9266;51.132;17.062;2022-12-29T09:02:50;9.20;88.60
18281;DHT22;9266;51.132;17.062;2022-12-29T09:05:18;9.10;96.10
18281;DHT22;9266;51.132;17.062;2022-12-29T09:07:45;9.30;94.90
18281;DHT22;9266;51.132;17.062;2022-12-29T09:10:12;9.20;91.60
18281;DHT22;9266;51.132;17.062;2022-12-29T09:12:39;9.30;94.50
18281;DHT22;9266;51.132;17.062;2022-12-29T09:15:07;9.30;92.40
18281;DHT22;9266;51.132;17.062;2022-12-29T09:17:36;9.30;97.90
18281;DHT22;9266;51.132;17.062;2022-12-29T09:20:10;9.40;89.40
18281;DHT22;9266;51.132;17.062;2022-12-29T09:22:38;9.50;89.60
18281;DHT22;9266;51.132;17.062;2022-12-29T09:25:05;9.40;83.70
18281;DHT22;9266;51.132;17.062;2022-12-29T09:27:33;9.40;99.90
18281;DHT22;9266;51.132;17.062;2022-12-29T09:30:00;9.40;99.90
18281;DHT22;9266;51.132;17.062;2022-12-29T09:32:27;9.50;99.90
18281;DHT22;9266;51.132;17.062;2022-12-29T09:34:55;9.60;99.90
18281;DHT22;9266;51.132;17.062;2022-12-29T09:37:22;9.70;99.90
18281;DHT22;9266;51.132;17.062;2022-12-29T09:39:50;9.70;99.90
18281;DHT22;9266;51.132;17.062;2022-12-29T09:42:21;9.80;99.90
18281;DHT22;9266;51.132;17.062;2022-12-29T09:44:58;10.00;99.90
18281;DHT22;9266;51.132;17.062;2022-12-29T09:47:28;11.20;99.90
18281;DHT22;9266;51.132;17.062;2022-12-29T09:50:02;10.20;95.30
18281;DHT22;9266;51.132;17.062;2022-12-29T09:52:32;10.30;80.70
18281;DHT22;9266;51.132;17.062;2022-12-29T09:55:04;10.50;64.40
18281;DHT22;9266;51.132;17.062;2022-12-29T09:57:35;10.60;53.40
18281;DHT22;9266;51.132;17.062;2022-12-29T10:00:09;10.70;22.50
18281;DHT22;9266;51.132;17.062;2022-12-29T10:02:41;10.70;3.60
18281;DHT22;9266;51.132;17.062;2022-12-29T10:05:20;10.70;1.00
18281;DHT22;9266;51.132;17.062;2022-12-29T10:07:54;10.80;1.00
18281;DHT22;9266;51.132;17.062;2022-12-29T10:10:32;10.80;1.00
18281;DHT22;9266;51.132;17.062;2022-12-29T10:13:07;10.80;1.00
18281;DHT22;9266;51.132;17.062;2022-12-29T10:15:46;10.90;1.00
18281;DHT22;9266;51.132;17.062;2022-12-29T10:18:32;12.40;1.00
18281;DHT22;9266;51.132;17.062;2022-12-29T10:21:12;10.90;1.00
18281;DHT22;9266;51.132;17.062;2022-12-29T10:23:42;10.80;1.00
18281;DHT22;9266;51.132;17.062;2022-12-29T10:26:15;10.80;1.00
18281;DHT22;9266;51.132;17.062;2022-12-29T10:28:44;10.90;1.00
18281;DHT22;9266;51.132;17.062;2022-12-29T10:31:17;11.00;1.00
18281;DHT22;9266;51.132;17.062;2022-12-29T10:33:49;11.00;1.00
18281;DHT22;9266;51.132;17.062;2022-12-29T10:36:26;13.00;1.00
18281;DHT22;9266;51.132;17.062;2022-12-29T10:39:04;11.10;1.00
18281;DHT22;9266;51.132;17.062;2022-12-29T10:41:39;11.10;1.00
18281;DHT22;9266;51.132;17.062;2022-12-29T10:44:10;12.10;1.00
18281;DHT22;9266;51.132;17.062;2022-12-29T10:46:39;11.10;1.00
18281;DHT22;9266;51.132;17.062;2022-12-29T10:49:12;11.20;1.00
18281;DHT22;9266;51.132;17.062;2022-12-29T10:51:43;11.20;1.00
18281;DHT22;9266;51.132;17.062;2022-12-29T10:54:15;11.20;1.00
18281;DHT22;9266;51.132;17.062;2022-12-29T10:56:45;11.20;1.00
18281;DHT22;9266;51.132;17.062;2022-12-29T10:59:17;11.20;1.00
18281;DHT22;9266;51.132;17.062;2022-12-29T11:01:54;11.20;1.00
18281;DHT22;9266;51.132;17.062;2022-12-29T11:04:43;11.20;1.00
18281;DHT22;9266;51.132;17.062;2022-12-29T11:07:17;11.30;1.00
18281;DHT22;9266;51.132;17.062;2022-12-29T11:09:45;11.40;1.00
18281;DHT22;9266;51.132;17.062;2022-12-29T11:12:22;11.40;1.00
18281;DHT22;9266;51.132;17.062;2022-12-29T11:15:02;11.50;1.00
18281;DHT22;9266;51.132;17.062;2022-12-29T11:17:43;11.50;1.00
18281;DHT22;9266;51.132;17.062;2022-12-29T11:20:27;11.50;1.00
18281;DHT22;9266;51.132;17.062;2022-12-29T11:22:56;11.60;1.00
18281;DHT22;9266;51.132;17.062;2022-12-29T11:25:23;11.60;1.00
18281;DHT22;9266;51.132;17.062;2022-12-29T11:27:58;11.70;1.00
18281;DHT22;9266;51.132;17.062;2022-12-29T11:30:28;11.80;1.00
18281;DHT22;9266;51.132;17.062;2022-12-29T11:32:57;10.70;1.00
18281;DHT22;9266;51.132;17.062;2022-12-29T11:35:33;11.80;1.00
18281;DHT22;9266;51.132;17.062;2022-12-29T11:38:02;11.80;1.00
18281;DHT22;9266;51.132;17.062;2022-12-29T11:40:31;11.70;1.00
18281;DHT22;9266;51.132;17.062;2022-12-29T11:43:02;11.70;1.00
18281;DHT22;9266;51.132;17.062;2022-12-29T11:45:33;11.80;1.00
18281;DHT22;9266;51.132;17.062;2022-12-29T11:48:05;11.90;1.00
18281;DHT22;9266;51.132;17.062;2022-12-29T11:50:36;12.00;1.00
18281;DHT22;9266;51.132;17.062;2022-12-29T11:53:14;11.90;1.00
18281;DHT22;9266;51.132;17.062;2022-12-29T11:55:51;11.80;1.00
18281;DHT22;9266;51.132;17.062;2022-12-29T11:58:18;11.60;1.00
18281;DHT22;9266;51.132;17.062;2022-12-29T12:00:49;11.60;1.00
18281;DHT22;9266;51.132;17.062;2022-12-29T12:03:19;11.40;1.00
18281;DHT22;9266;51.132;17.062;2022-12-29T12:05:50;11.30;1.00
18281;DHT22;9266;51.132;17.062;2022-12-29T12:08:28;11.30;1.00
18281;DHT22;9266;51.132;17.062;2022-12-29T12:11:04;11.40;1.00
18281;DHT22;9266;51.132;17.062;2022-12-29T12:13:36;11.30;1.00
18281;DHT22;9266;51.132;17.062;2022-12-29T12:16:08;11.20;1.00
18281;DHT22;9266;51.132;17.062;2022-12-29T12:18:40;11.20;1.00
18281;DHT22;9266;51.132;17.062;2022-12-29T12:21:18;11.10;1.00
18281;DHT22;9266;51.132;17.062;2022-12-29T12:24:14;11.00;1.00
18281;DHT22;9266;51.132;17.062;2022-12-29T12:26:54;11.00;1.00
18281;DHT22;9266;51.132;17.062;2022-12-29T12:29:25;10.90;1.00
18281;DHT22;9266;51.132;17.062;2022-12-29T12:31:57;10.80;1.00
18281;DHT22;9266;51.132;17.062;2022-12-29T12:34:31;10.80;1.00
18281;DHT22;9266;51.132;17.062;2022-12-29T12:37:15;10.80;1.00
18281;DHT22;9266;51.132;17.062;2022-12-29T12:40:02;10.60;1.00
18281;DHT22;9266;51.132;17.062;2022-12-29T12:42:39;10.60;1.00
18281;DHT22;9266;51.132;17.062;2022-12-29T12:45:42;10.60;1.00
18281;DHT22;9266;51.132;17.062;2022-12-29T12:48:22;10.60;1.00
18281;DHT22;9266;51.132;17.062;2022-12-29T12:51:01;10.60;1.00
18281;DHT22;9266;51.132;17.062;2022-12-29T12:53:44;10.60;1.00
18281;DHT22;9266;51.132;17.062;2022-12-29T12:56:43;10.70;1.00
18281;DHT22;9266;51.132;17.062;2022-12-29T12:59:30;10.80;1.00
18281;DHT22;9266;51.132;17.062;2022-12-29T13:02:06;10.90;1.00
18281;DHT22;9266;51.132;17.062;2022-12-29T13:05:04;11.00;1.00
18281;DHT22;9266;51.132;17.062;2022-12-29T13:07:40;11.10;1.00
18281;DHT22;9266;51.132;17.062;2022-12-29T13:10:22;11.10;1.00
18281;DHT22;9266;51.132;17.062;2022-12-29T13:13:05;11.10;1.00
18281;DHT22;9266;51.132;17.062;2022-12-29T13:15:46;11.10;1.00
18281;DHT22;9266;51.132;17.062;2022-12-29T13:18:22;11.10;1.00
18281;DHT22;9266;51.132;17.062;2022-12-29T13:20:55;11.10;1.00
18281;DHT22;9266;51.132;17.062;2022-12-29T13:23:29;11.10;1.00
18281;DHT22;9266;51.132;17.062;2022-12-29T13:26:05;11.10;1.00
18281;DHT22;9266;51.132;17.062;2022-12-29T13:28:45;11.20;1.00
18281;DHT22;9266;51.132;17.062;2022-12-29T13:31:17;11.20;1.00
18281;DHT22;9266;51.132;17.062;2022-12-29T13:33:55;11.30;1.00
18281;DHT22;9266;51.132;17.062;2022-12-29T13:36:27;11.50;1.00
18281;DHT22;9266;51.132;17.062;2022-12-29T13:39:02;11.50;1.00
18281;DHT22;9266;51.132;17.062;2022-12-29T13:41:34;11.50;1.00
18281;DHT22;9266;51.132;17.062;2022-12-29T13:44:05;11.50;1.00
18281;DHT22;9266;51.132;17.062;2022-12-29T13:46:39;11.50;1.00
18281;DHT22;9266;51.132;17.062;2022-12-29T13:49:11;11.60;1.00
18281;DHT22;9266;51.132;17.062;2022-12-29T13:51:43;11.70;1.00
18281;DHT22;9266;51.132;17.062;2022-12-29T13:54:23;11.60;1.00
18281;DHT22;9266;51.132;17.062;2022-12-29T13:56:59;11.60;1.00
18281;DHT22;9266;51.132;17.062;2022-12-29T13:59:38;11.60;1.00
18281;DHT22;9266;51.132;17.062;2022-12-29T14:02:15;11.60;1.00
18281;DHT22;9266;51.132;17.062;2022-12-29T14:04:56;11.50;1.00
18281;DHT22;9266;51.132;17.062;2022-12-29T14:07:24;11.50;1.00
18281;DHT22;9266;51.132;17.062;2022-12-29T14:09:52;11.40;1.00
18281;DHT22;9266;51.132;17.062;2022-12-29T14:12:25;11.40;1.00
18281;DHT22;9266;51.132;17.062;2022-12-29T14:15:03;11.30;1.00
18281;DHT22;9266;51.132;17.062;2022-12-29T14:17:30;10.70;1.00
18281;DHT22;9266;51.132;17.062;2022-12-29T14:19:58;11.10;1.00
18281;DHT22;9266;51.132;17.062;2022-12-29T14:22:26;11.10;1.00
18281;DHT22;9266;51.132;17.062;2022-12-29T14:24:53;11.00;1.00
18281;DHT22;9266;51.132;17.062;2022-12-29T14:27:52;10.90;1.00
18281;DHT22;9266;51.132;17.062;2022-12-29T14:30:49;10.60;1.00
18281;DHT22;9266;51.132;17.062;2022-12-29T14:33:17;10.50;1.00
18281;DHT22;9266;51.132;17.062;2022-12-29T14:35:48;10.30;1.00
18281;DHT22;9266;51.132;17.062;2022-12-29T14:38:32;10.30;1.00
18281;DHT22;9266;51.132;17.062;2022-12-29T14:41:27;10.10;1.00
18281;DHT22;9266;51.132;17.062;2022-12-29T14:44:02;10.00;1.00
18281;DHT22;9266;51.132;17.062;2022-12-29T14:46:46;10.00;1.00
18281;DHT22;9266;51.132;17.062;2022-12-29T14:49:18;9.80;1.00
18281;DHT22;9266;51.132;17.062;2022-12-29T14:51:46;9.70;1.00
18281;DHT22;9266;51.132;17.062;2022-12-29T14:54:46;9.60;1.00
18281;DHT22;9266;51.132;17.062;2022-12-29T14:57:34;9.50;1.00
18281;DHT22;9266;51.132;17.062;2022-12-29T15:00:18;9.40;1.00
18281;DHT22;9266;51.132;17.062;2022-12-29T15:02:50;9.30;1.00
18281;DHT22;9266;51.132;17.062;2022-12-29T15:05:29;9.20;1.00
18281;DHT22;9266;51.132;17.062;2022-12-29T15:07:58;9.10;1.00
18281;DHT22;9266;51.132;17.062;2022-12-29T15:10:30;9.10;1.00
18281;DHT22;9266;51.132;17.062;2022-12-29T15:13:04;10.90;1.00
18281;DHT22;9266;51.132;17.062;2022-12-29T15:15:37;9.00;1.00
18281;DHT22;9266;51.132;17.062;2022-12-29T15:18:26;9.00;1.00
18281;DHT22;9266;51.132;17.062;2022-12-29T15:20:55;8.90;1.00
18281;DHT22;9266;51.132;17.062;2022-12-29T15:23:23;8.90;1.00
18281;DHT22;9266;51.132;17.062;2022-12-29T15:25:54;9.00;1.00
18281;DHT22;9266;51.132;17.062;2022-12-29T15:28:22;9.00;1.00
18281;DHT22;9266;51.132;17.062;2022-12-29T15:30:54;9.00;1.00
18281;DHT22;9266;51.132;17.062;2022-12-29T15:33:25;8.90;1.00
18281;DHT22;9266;51.132;17.062;2022-12-29T15:35:54;8.90;1.00
18281;DHT22;9266;51.132;17.062;2022-12-29T15:38:23;8.80;1.00
18281;DHT22;9266;51.132;17.062;2022-12-29T15:40:54;8.70;1.00
18281;DHT22;9266;51.132;17.062;2022-12-29T15:43:29;8.60;3.10
18281;DHT22;9266;51.132;17.062;2022-12-29T15:46:01;8.60;2.70
18281;DHT22;9266;51.132;17.062;2022-12-29T15:48:30;8.50;5.30
18281;DHT22;9266;51.132;17.062;2022-12-29T15:50:58;8.40;3.10
18281;DHT22;9266;51.132;17.062;2022-12-29T15:53:28;8.40;8.00
18281;DHT22;9266;51.132;17.062;2022-12-29T15:55:57;8.40;13.20
18281;DHT22;9266;51.132;17.062;2022-12-29T15:58:27;9.80;6.00
18281;DHT22;9266;51.132;17.062;2022-12-29T16:00:55;8.30;15.10
18281;DHT22;9266;51.132;17.062;2022-12-29T16:03:25;8.30;13.90
18281;DHT22;9266;51.132;17.062;2022-12-29T16:05:57;8.20;20.00
18281;DHT22;9266;51.132;17.062;2022-12-29T16:08:31;8.10;19.60
18281;DHT22;9266;51.132;17.062;2022-12-29T16:11:00;8.10;21.30
18281;DHT22;9266;51.132;17.062;2022-12-29T16:13:31;8.10;24.60
18281;DHT22;9266;51.132;17.062;2022-12-29T16:16:01;8.10;31.90
18281;DHT22;9266;51.132;17.062;2022-12-29T16:18:34;8.10;34.70
18281;DHT22;9266;51.132;17.062;2022-12-29T16:21:05;8.00;55.00
18281;DHT22;9266;51.132;17.062;2022-12-29T16:23:36;8.00;49.90
18281;DHT22;9266;51.132;17.062;2022-12-29T16:26:03;8.00;59.10
18281;DHT22;9266;51.132;17.062;2022-12-29T16:28:38;8.00;61.10
18281;DHT22;9266;51.132;17.062;2022-12-29T16:31:19;8.00;61.30